createdAt,value
2019-05-17T00:00:37.352Z,8.13
2019-05-17T00:03:06.958Z,8.07
2019-05-17T00:05:37.537Z,7.33
2019-05-17T00:08:07.605Z,7.70
2019-05-17T00:10:37.532Z,8.03
2019-05-17T00:13:07.634Z,7.70
2019-05-17T00:15:36.804Z,7.20
2019-05-17T00:18:06.724Z,7.03
2019-05-17T00:20:37.434Z,7.70
2019-05-17T00:23:07.013Z,8.00
2019-05-17T00:25:36.903Z,8.17
2019-05-17T00:28:07.261Z,7.80
2019-05-17T00:30:37.236Z,8.23
2019-05-17T00:33:07.870Z,8.87
2019-05-17T00:35:37.543Z,8.10
2019-05-17T00:38:06.731Z,7.50
2019-05-17T00:40:36.553Z,8.20
2019-05-17T00:43:06.761Z,7.73
2019-05-17T00:45:37.616Z,8.60
2019-05-17T00:48:06.569Z,7.33
2019-05-17T00:50:38.008Z,8.03
2019-05-17T00:53:07.308Z,8.00
2019-05-17T00:55:36.452Z,7.87
2019-05-17T00:58:06.714Z,7.90
2019-05-17T01:00:37.529Z,8.07
2019-05-17T01:03:07.164Z,7.27
2019-05-17T01:05:36.876Z,7.90
2019-05-17T01:08:07.369Z,7.73
2019-05-17T01:10:36.888Z,8.27
2019-05-17T01:13:06.920Z,8.33
2019-05-17T01:15:36.918Z,8.53
2019-05-17T01:18:07.173Z,8.57
2019-05-17T01:20:36.901Z,8.10
2019-05-17T01:23:07.531Z,7.90
2019-05-17T01:25:36.934Z,7.73
2019-05-17T01:28:07.599Z,7.73
2019-05-17T01:30:37.510Z,8.73
2019-05-17T01:33:06.766Z,8.67
2019-05-17T01:35:37.403Z,8.27
2019-05-17T01:38:07.273Z,7.73
2019-05-17T01:40:37.268Z,8.53
2019-05-17T01:43:07.872Z,7.63
2019-05-17T01:45:36.680Z,8.00
2019-05-17T01:48:07.473Z,8.10
2019-05-17T01:50:37.305Z,7.60
2019-05-17T01:53:07.374Z,8.20
2019-05-17T01:55:37.571Z,7.80
2019-05-17T01:58:07.261Z,7.70
2019-05-17T02:00:37.534Z,8.77
2019-05-17T02:03:07.011Z,8.70
2019-05-17T02:05:37.225Z,9.17
2019-05-17T02:08:06.740Z,8.63
2019-05-17T02:10:37.553Z,8.63
2019-05-17T02:13:06.600Z,7.43
2019-05-17T02:15:37.815Z,8.30
2019-05-17T02:18:07.020Z,8.37
2019-05-17T02:20:37.247Z,8.03
2019-05-17T02:23:07.244Z,7.47
2019-05-17T02:25:36.918Z,8.10
2019-05-17T02:28:05.905Z,7.40
2019-05-17T02:30:34.680Z,7.73
2019-05-17T02:33:04.157Z,7.77
2019-05-17T02:35:33.772Z,7.87
2019-05-17T02:38:03.053Z,7.30
2019-05-17T02:40:34.098Z,7.30
2019-05-17T02:43:03.302Z,7.60
2019-05-17T02:45:33.091Z,7.63
2019-05-17T02:48:03.899Z,7.80
2019-05-17T02:50:33.409Z,6.97
2019-05-17T02:53:04.351Z,7.83
2019-05-17T02:55:32.891Z,7.43
2019-05-17T02:58:03.200Z,7.47
2019-05-17T03:00:33.878Z,7.67
2019-05-17T03:03:03.627Z,7.17
2019-05-17T03:05:33.827Z,7.37
2019-05-17T03:08:04.109Z,7.20
2019-05-17T03:10:33.648Z,7.63
2019-05-17T03:13:03.999Z,7.23
2019-05-17T03:15:32.961Z,7.20
2019-05-17T03:18:03.903Z,7.13
2019-05-17T03:20:32.694Z,7.07
2019-05-17T03:23:03.697Z,7.03
2019-05-17T03:25:33.481Z,7.17
2019-05-17T03:28:03.192Z,7.40
2019-05-17T03:30:36.913Z,7.43
2019-05-17T03:33:06.959Z,10.00
2019-05-17T03:35:37.591Z,8.97
2019-05-17T03:38:04.596Z,8.03
2019-05-17T03:41:01.346Z,8.53
2019-05-17T03:43:03.732Z,8.60
2019-05-17T03:45:34.079Z,8.97
2019-05-17T03:48:04.911Z,8.00
2019-05-17T03:50:33.911Z,7.17
2019-05-17T03:53:02.789Z,9.07
2019-05-17T03:55:33.334Z,7.20
2019-05-17T03:58:03.237Z,6.57
2019-05-17T04:00:35.412Z,6.97
2019-05-17T04:03:03.226Z,7.57
2019-05-17T04:05:33.491Z,6.83
2019-05-17T04:08:03.442Z,6.70
2019-05-17T04:10:33.551Z,6.53
2019-05-17T04:13:04.239Z,6.67
2019-05-17T04:15:33.335Z,7.47
2019-05-17T04:18:04.168Z,6.50
2019-05-17T04:20:33.505Z,6.40
2019-05-17T04:23:03.887Z,6.63
2019-05-17T04:25:33.701Z,6.50
2019-05-17T04:28:03.241Z,6.27
2019-05-17T04:30:32.970Z,5.80
2019-05-17T04:33:03.357Z,5.60
2019-05-17T04:35:32.907Z,5.20
2019-05-17T04:38:04.161Z,5.40
2019-05-17T04:40:33.928Z,6.00
2019-05-17T04:43:03.231Z,5.40
2019-05-17T04:45:33.652Z,5.40
2019-05-17T04:48:04.042Z,5.33
2019-05-17T04:50:33.580Z,4.73
2019-05-17T04:53:02.999Z,5.40
2019-05-17T04:55:34.200Z,5.07
2019-05-17T04:58:04.089Z,5.37
2019-05-17T05:00:34.090Z,5.50
2019-05-17T05:03:04.021Z,4.97
2019-05-17T05:05:33.356Z,5.53
2019-05-17T05:08:03.061Z,5.37
2019-05-17T05:10:33.799Z,5.37
2019-05-17T05:13:03.416Z,4.97
2019-05-17T05:15:43.367Z,5.87
2019-05-17T05:18:13.268Z,5.83
2019-05-17T05:20:43.444Z,4.90
2019-05-17T05:23:12.995Z,5.90
2019-05-17T05:25:43.111Z,5.40
2019-05-17T05:28:12.158Z,5.20
2019-05-17T05:30:42.153Z,6.03
2019-05-17T05:33:12.798Z,5.90
2019-05-17T05:35:42.423Z,5.47
2019-05-17T05:38:12.967Z,5.40
2019-05-17T05:40:42.476Z,4.80
2019-05-17T05:43:11.927Z,5.20
2019-05-17T05:45:41.717Z,5.50
2019-05-17T05:48:12.774Z,4.90
2019-05-17T05:50:43.138Z,4.90
2019-05-17T05:53:12.925Z,4.80
2019-05-17T05:55:42.884Z,5.30
2019-05-17T05:58:12.296Z,5.10
2019-05-17T06:00:42.759Z,6.03
2019-05-17T06:03:12.031Z,5.40
2019-05-17T06:05:42.322Z,5.30
2019-05-17T06:08:12.198Z,5.40
2019-05-17T06:10:42.659Z,5.90
2019-05-17T06:13:13.219Z,4.97
2019-05-17T06:15:42.924Z,5.00
2019-05-17T06:18:12.296Z,5.30
2019-05-17T06:20:41.775Z,5.73
2019-05-17T06:23:12.337Z,5.50
2019-05-17T06:25:43.487Z,4.50
2019-05-17T06:28:11.946Z,5.50
2019-05-17T06:30:43.073Z,5.30
2019-05-17T06:33:11.964Z,4.80
2019-05-17T06:35:42.460Z,5.93
2019-05-17T06:38:12.076Z,5.60
2019-05-17T06:40:42.076Z,5.50
2019-05-17T06:43:13.051Z,6.23
2019-05-17T06:45:42.080Z,5.70
2019-05-17T06:48:11.796Z,6.33
2019-05-17T06:50:42.911Z,5.50
2019-05-17T06:53:12.301Z,5.60
2019-05-17T06:55:42.557Z,6.00
2019-05-17T06:58:11.868Z,5.80
2019-05-17T07:00:40.637Z,5.90
2019-05-17T07:03:09.650Z,5.77
2019-05-17T07:05:40.936Z,5.90
2019-05-17T07:08:10.782Z,5.73
2019-05-17T07:10:40.072Z,6.80
2019-05-17T07:13:10.638Z,5.93
2019-05-17T07:15:47.359Z,6.50
2019-05-17T07:18:10.423Z,7.13
2019-05-17T07:20:39.695Z,7.00
2019-05-17T07:23:10.810Z,6.63
2019-05-17T07:25:39.749Z,6.67
2019-05-17T07:28:10.165Z,6.80
2019-05-17T07:30:39.922Z,7.63
2019-05-17T07:33:10.210Z,7.03
2019-05-17T07:35:39.647Z,6.60
2019-05-17T07:38:10.539Z,7.50
2019-05-17T07:40:39.848Z,7.00
2019-05-17T07:43:14.397Z,6.97
2019-05-17T07:45:40.669Z,7.20
2019-05-17T07:48:09.816Z,8.43
2019-05-17T07:50:39.928Z,8.57
2019-05-17T07:53:10.279Z,7.67
2019-05-17T07:55:39.876Z,7.60
2019-05-17T07:58:09.957Z,6.07
2019-05-17T08:00:40.077Z,7.40
2019-05-17T08:03:12.616Z,7.63
2019-05-17T08:05:40.293Z,7.57
2019-05-17T08:08:09.770Z,7.63
2019-05-17T08:10:40.912Z,7.60
2019-05-17T08:13:25.216Z,8.03
2019-05-17T08:15:39.900Z,8.20
2019-05-17T08:18:10.813Z,7.87
2019-05-17T08:20:40.111Z,7.17
2019-05-17T08:23:10.508Z,6.60
2019-05-17T08:25:52.042Z,7.33
2019-05-17T08:28:10.933Z,7.57
2019-05-17T08:30:40.933Z,7.03
2019-05-17T08:33:12.707Z,7.33
2019-05-17T08:35:46.541Z,7.40
2019-05-17T08:38:15.082Z,7.60
2019-05-17T08:40:43.675Z,8.10
2019-05-17T08:43:15.762Z,8.07
2019-05-17T08:45:44.444Z,8.07
2019-05-17T08:48:15.052Z,6.87
2019-05-17T08:50:43.695Z,7.47
2019-05-17T08:53:15.099Z,8.13
2019-05-17T08:55:43.678Z,7.13
2019-05-17T08:58:12.312Z,7.03
2019-05-17T09:00:41.060Z,7.50
2019-05-17T09:03:10.675Z,6.57
2019-05-17T09:05:41.775Z,6.43
2019-05-17T09:08:10.657Z,6.03
2019-05-17T09:10:40.719Z,6.27
2019-05-17T09:13:12.397Z,5.97
2019-05-17T09:15:40.179Z,6.03
2019-05-17T09:18:09.892Z,6.70
2019-05-17T09:20:40.508Z,6.00
2019-05-17T09:23:09.675Z,6.33
2019-05-17T09:25:39.841Z,5.97
2019-05-17T09:28:10.119Z,6.43
2019-05-17T09:30:40.434Z,6.73
2019-05-17T09:33:11.377Z,6.80
2019-05-17T09:35:40.838Z,7.17
2019-05-17T09:38:10.259Z,5.90
2019-05-17T09:40:40.187Z,5.90
2019-05-17T09:43:10.090Z,6.10
2019-05-17T09:45:40.338Z,5.80
2019-05-17T09:48:10.317Z,6.03
2019-05-17T09:50:39.965Z,6.13
2019-05-17T09:53:10.689Z,6.70
2019-05-17T09:55:39.720Z,6.27
2019-05-17T09:58:09.804Z,5.40
2019-05-17T10:00:38.777Z,5.97
2019-05-17T10:03:09.687Z,5.63
2019-05-17T10:05:40.277Z,6.10
2019-05-17T10:08:10.601Z,6.27
2019-05-17T10:10:40.258Z,6.10
2019-05-17T10:13:09.835Z,6.10
2019-05-17T10:15:40.919Z,6.87
2019-05-17T10:18:11.140Z,6.30
2019-05-17T10:20:40.120Z,6.40
2019-05-17T10:23:10.452Z,6.17
2019-05-17T10:25:40.048Z,6.37
2019-05-17T10:28:10.130Z,7.50
2019-05-17T10:30:39.935Z,6.53
2019-05-17T10:33:09.806Z,6.30
2019-05-17T10:35:40.671Z,6.80
2019-05-17T10:38:10.348Z,6.00
2019-05-17T10:40:40.860Z,6.83
2019-05-17T10:43:10.184Z,6.50
2019-05-17T10:45:40.058Z,6.63
2019-05-17T10:48:10.272Z,7.10
2019-05-17T10:50:40.689Z,6.90
2019-05-17T10:53:10.223Z,6.97
2019-05-17T10:55:39.697Z,8.30
2019-05-17T10:58:09.994Z,8.20
2019-05-17T11:00:41.413Z,9.23
2019-05-17T11:03:10.060Z,7.90
2019-05-17T11:05:40.158Z,8.63
2019-05-17T11:08:10.623Z,8.90
2019-05-17T11:10:39.754Z,7.60
2019-05-17T11:13:08.398Z,7.53
2019-05-17T11:15:36.953Z,6.90
2019-05-17T11:18:05.758Z,8.20
2019-05-17T11:20:34.346Z,6.90
2019-05-17T11:23:02.935Z,6.80
2019-05-17T11:25:31.619Z,8.17
2019-05-17T11:28:00.211Z,8.17
2019-05-17T11:30:28.801Z,6.87
2019-05-17T11:32:57.589Z,7.27
2019-05-17T11:35:26.202Z,8.10
2019-05-17T11:37:54.688Z,7.23
2019-05-17T11:40:23.483Z,6.87
2019-05-17T11:42:51.958Z,6.70
2019-05-17T11:45:28.198Z,7.63
2019-05-17T11:47:51.137Z,7.20
2019-05-17T11:50:20.250Z,6.80
2019-05-17T11:52:48.932Z,7.00
2019-05-17T11:55:17.726Z,7.20
2019-05-17T11:57:46.317Z,7.10
2019-05-17T12:00:16.487Z,6.77
2019-05-17T12:02:44.978Z,7.83
2019-05-17T12:05:13.539Z,6.93
2019-05-17T12:07:42.159Z,6.70
2019-05-17T12:10:11.058Z,5.90
2019-05-17T12:12:39.753Z,6.47
2019-05-17T12:15:08.741Z,6.17
2019-05-17T12:17:37.528Z,5.60
2019-05-17T12:20:06.659Z,6.57
2019-05-17T12:22:35.067Z,6.30
2019-05-17T12:25:04.012Z,6.40
2019-05-17T12:27:32.606Z,6.17
2019-05-17T12:30:01.299Z,6.83
2019-05-17T12:32:29.929Z,5.87
2019-05-17T12:34:58.544Z,6.67
2019-05-17T12:37:27.140Z,7.37
2019-05-17T12:39:55.733Z,6.93
2019-05-17T12:42:24.516Z,6.20
2019-05-17T12:44:52.989Z,7.00
2019-05-17T12:47:21.463Z,7.00
2019-05-17T12:49:50.070Z,7.40
2019-05-17T12:52:18.564Z,7.47
2019-05-17T12:54:47.061Z,5.87
2019-05-17T12:57:15.744Z,5.60
2019-05-17T12:59:44.322Z,6.73
2019-05-17T13:02:12.972Z,7.07
2019-05-17T13:04:41.536Z,5.93
2019-05-17T13:07:10.065Z,6.17
2019-05-17T13:09:38.547Z,6.20
2019-05-17T13:12:07.140Z,5.80
2019-05-17T13:14:35.836Z,6.20
2019-05-17T13:17:04.529Z,6.37
2019-05-17T13:19:33.094Z,6.13
2019-05-17T13:22:01.823Z,6.17
2019-05-17T13:24:30.404Z,6.40
2019-05-17T13:26:59.083Z,7.17
2019-05-17T13:29:27.697Z,6.43
2019-05-17T13:31:56.289Z,6.77
2019-05-17T13:34:24.769Z,6.20
2019-05-17T13:36:53.373Z,6.43
2019-05-17T13:39:21.880Z,6.60
2019-05-17T13:41:50.573Z,6.23
2019-05-17T13:44:19.177Z,6.87
2019-05-17T13:46:48.169Z,5.43
2019-05-17T13:49:16.870Z,5.87
2019-05-17T13:51:45.542Z,6.23
2019-05-17T13:54:14.163Z,5.87
2019-05-17T13:56:42.774Z,6.50
2019-05-17T13:59:11.378Z,6.03
2019-05-17T14:01:40.032Z,5.63
2019-05-17T14:04:08.669Z,5.77
2019-05-17T14:06:37.155Z,5.37
2019-05-17T14:09:06.139Z,5.33
2019-05-17T14:11:34.646Z,4.77
2019-05-17T14:14:03.235Z,5.70
2019-05-17T14:16:34.385Z,5.27
2019-05-17T14:19:02.094Z,4.93
2019-05-17T14:21:30.726Z,5.00
2019-05-17T14:23:59.357Z,5.43
2019-05-17T14:26:27.940Z,5.03
2019-05-17T14:28:56.560Z,5.10
2019-05-17T14:31:25.148Z,5.13
2019-05-17T14:33:53.879Z,5.60
2019-05-17T14:36:22.639Z,5.43
2019-05-17T14:38:51.355Z,5.73
2019-05-17T14:41:19.896Z,7.40
2019-05-17T14:43:48.518Z,6.70
2019-05-17T14:46:17.104Z,7.37
2019-05-17T14:48:45.692Z,6.27
2019-05-17T14:51:14.304Z,7.03
2019-05-17T14:53:42.801Z,5.93
2019-05-17T14:56:11.403Z,5.27
2019-05-17T14:58:39.806Z,5.87
2019-05-17T15:01:08.292Z,6.83
2019-05-17T15:03:36.970Z,6.13
2019-05-17T15:06:05.573Z,7.20
2019-05-17T15:08:34.153Z,6.07
2019-05-17T15:11:02.566Z,16.23
2019-05-17T15:13:31.166Z,13.93
2019-05-17T15:15:59.730Z,12.90
2019-05-17T15:18:28.427Z,9.10
2019-05-17T15:20:57.120Z,6.47
2019-05-17T15:23:25.845Z,9.00
2019-05-17T15:25:54.458Z,9.37
2019-05-17T15:28:22.963Z,9.93
2019-05-17T15:30:51.557Z,7.07
2019-05-17T15:33:20.145Z,4.47
2019-05-17T15:35:48.910Z,5.87
2019-05-17T15:38:17.492Z,6.13
2019-05-17T15:40:46.397Z,9.43
2019-05-17T15:43:14.878Z,7.20
2019-05-17T15:45:43.473Z,5.90
2019-05-17T15:48:12.308Z,6.17
2019-05-17T15:50:40.784Z,5.53
2019-05-17T15:53:09.447Z,6.50
2019-05-17T15:55:38.213Z,7.90
2019-05-17T15:58:06.888Z,7.67
2019-05-17T16:00:35.295Z,7.67
2019-05-17T16:03:03.791Z,6.33
2019-05-17T16:05:32.287Z,5.90
2019-05-17T16:08:00.977Z,8.63
2019-05-17T16:10:29.682Z,6.67
2019-05-17T16:13:03.229Z,7.23
2019-05-17T16:15:28.789Z,7.03
2019-05-17T16:17:57.381Z,7.60
2019-05-17T16:20:25.965Z,7.00
2019-05-17T16:22:54.656Z,6.20
2019-05-17T16:25:23.458Z,4.70
2019-05-17T16:27:52.050Z,15.27
2019-05-17T16:30:20.645Z,12.07
2019-05-17T16:32:49.228Z,11.03
2019-05-17T16:35:17.723Z,11.43
2019-05-17T16:37:46.218Z,7.80
2019-05-17T16:40:14.997Z,7.17
2019-05-17T16:42:43.583Z,6.20
2019-05-17T16:45:14.182Z,6.07
2019-05-17T16:47:42.681Z,5.13
2019-05-17T16:50:11.676Z,5.57
2019-05-17T16:52:40.175Z,6.33
2019-05-17T16:55:09.182Z,5.17
2019-05-17T16:57:37.784Z,5.53
2019-05-17T17:00:30.480Z,6.60
2019-05-17T17:02:59.291Z,7.53
2019-05-17T17:05:27.817Z,5.80
2019-05-17T17:07:56.491Z,5.73
2019-05-17T17:10:25.290Z,4.90
2019-05-17T17:12:53.876Z,5.90
2019-05-17T17:15:22.677Z,6.00
2019-05-17T17:17:51.420Z,6.40
2019-05-17T17:20:20.207Z,5.70
2019-05-17T17:22:49.324Z,6.30
2019-05-17T17:25:18.126Z,5.93
2019-05-17T17:27:46.833Z,5.80
2019-05-17T17:30:16.513Z,5.57
2019-05-17T17:32:45.198Z,5.87
2019-05-17T17:35:13.984Z,6.30
2019-05-17T17:37:42.592Z,6.67
2019-05-17T17:40:11.530Z,7.20
2019-05-17T17:42:40.244Z,6.97
2019-05-17T17:45:15.930Z,7.70
2019-05-17T17:47:44.489Z,8.37
2019-05-17T17:50:14.311Z,7.37
2019-05-17T17:52:45.428Z,7.93
2019-05-17T17:55:14.134Z,8.17
2019-05-17T17:57:42.624Z,8.60
2019-05-17T18:00:12.261Z,8.90
2019-05-17T18:02:40.886Z,7.30
2019-05-17T18:05:09.589Z,8.50
2019-05-17T18:07:38.085Z,8.60
2019-05-17T18:10:07.100Z,8.27
2019-05-17T18:12:35.811Z,8.90
2019-05-17T18:15:06.623Z,7.87
2019-05-17T18:17:39.289Z,9.27
2019-05-17T18:20:05.999Z,10.87
2019-05-17T18:22:34.604Z,11.17
2019-05-17T18:25:04.746Z,11.93
2019-05-17T18:27:33.331Z,11.97
2019-05-17T18:30:02.245Z,12.30
2019-05-17T18:32:30.839Z,11.33
2019-05-17T18:34:59.642Z,12.33
2019-05-17T18:37:28.354Z,9.97
2019-05-17T18:39:56.827Z,9.27
2019-05-17T18:42:25.294Z,12.77
2019-05-17T18:44:54.000Z,11.00
2019-05-17T18:47:22.708Z,10.10
2019-05-17T18:49:51.317Z,10.20
2019-05-17T18:52:20.008Z,6.60
2019-05-17T18:54:49.176Z,6.20
2019-05-17T18:57:17.765Z,8.60
2019-05-17T18:59:46.370Z,6.83
2019-05-17T19:02:14.954Z,7.73
2019-05-17T19:04:43.569Z,5.93
2019-05-17T19:07:12.062Z,5.80
2019-05-17T19:09:40.741Z,5.50
2019-05-17T19:12:09.442Z,5.57
2019-05-17T19:14:42.893Z,5.90
2019-05-17T19:17:08.448Z,5.90
2019-05-17T19:19:36.916Z,6.67
2019-05-17T19:22:05.618Z,6.90
2019-05-17T19:24:34.104Z,6.37
2019-05-17T19:27:03.174Z,6.43
2019-05-17T19:29:31.670Z,6.33
2019-05-17T19:32:00.136Z,6.43
2019-05-17T19:34:28.538Z,6.33
2019-05-17T19:36:57.025Z,6.87
2019-05-17T19:39:25.504Z,6.77
2019-05-17T19:41:54.093Z,7.17
2019-05-17T19:44:22.729Z,6.80
2019-05-17T19:46:51.240Z,7.20
2019-05-17T19:49:19.938Z,6.43
2019-05-17T19:51:48.651Z,6.50
2019-05-17T19:54:17.361Z,6.70
2019-05-17T19:56:45.847Z,6.20
2019-05-17T19:59:14.323Z,6.20
2019-05-17T20:01:42.707Z,6.30
2019-05-17T20:04:11.393Z,6.63
2019-05-17T20:06:39.789Z,6.10
2019-05-17T20:09:08.372Z,6.43
2019-05-17T20:11:36.991Z,6.90
2019-05-17T20:14:05.473Z,7.00
2019-05-17T20:16:34.074Z,7.30
2019-05-17T20:19:02.660Z,7.03
2019-05-17T20:21:31.362Z,7.10
2019-05-17T20:24:00.255Z,6.93
2019-05-17T20:26:28.945Z,7.10
2019-05-17T20:28:57.451Z,6.73
2019-05-17T20:31:25.929Z,6.47
2019-05-17T20:33:54.532Z,6.30
2019-05-17T20:36:23.033Z,6.30
2019-05-17T20:38:51.632Z,6.20
2019-05-17T20:41:20.177Z,6.57
2019-05-17T20:43:48.834Z,6.73
2019-05-17T20:46:17.424Z,6.60
2019-05-17T20:48:46.130Z,6.60
2019-05-17T20:51:14.824Z,7.70
2019-05-17T20:53:43.208Z,7.10
2019-05-17T20:56:11.800Z,7.37
2019-05-17T20:58:40.378Z,6.73
2019-05-17T21:01:09.060Z,7.13
2019-05-17T21:03:37.649Z,7.30
2019-05-17T21:06:06.241Z,7.70
2019-05-17T21:08:45.527Z,7.47
2019-05-17T21:11:05.247Z,7.60
2019-05-17T21:13:33.931Z,7.07
2019-05-17T21:16:02.521Z,7.07
2019-05-17T21:18:31.414Z,6.87
2019-05-17T21:21:00.841Z,7.70
2019-05-17T21:23:29.221Z,8.20
2019-05-17T21:25:59.395Z,7.33
2019-05-17T21:28:27.995Z,7.87
2019-05-17T21:30:56.546Z,7.90
2019-05-17T21:33:25.213Z,7.27
2019-05-17T21:35:53.796Z,7.57
2019-05-17T21:38:22.316Z,7.33
2019-05-17T21:40:50.913Z,7.87
2019-05-17T21:43:19.522Z,7.77
2019-05-17T21:46:02.319Z,7.10
2019-05-17T21:48:18.598Z,7.33
2019-05-17T21:50:47.018Z,7.47
2019-05-17T21:53:15.509Z,7.60
2019-05-17T21:55:44.101Z,7.30
2019-05-17T21:58:12.589Z,7.10
2019-05-17T22:01:25.710Z,6.53
2019-05-17T22:03:54.197Z,7.37
2019-05-17T22:06:22.882Z,7.03
2019-05-17T22:08:51.472Z,6.97
2019-05-17T22:11:20.133Z,6.93
2019-05-17T22:13:48.627Z,6.87
2019-05-17T22:16:19.940Z,7.17
2019-05-17T22:18:47.614Z,7.10
2019-05-17T22:21:16.005Z,7.50
2019-05-17T22:23:44.501Z,7.07
2019-05-17T22:26:13.092Z,7.07
2019-05-17T22:28:41.583Z,6.67
2019-05-17T22:31:10.218Z,6.70
2019-05-17T22:33:38.711Z,7.20
2019-05-17T22:36:07.540Z,7.03
2019-05-17T22:38:36.054Z,7.47
2019-05-17T22:41:04.700Z,7.40
2019-05-17T22:43:33.511Z,7.57
2019-05-17T22:46:02.250Z,7.67
2019-05-17T22:48:31.046Z,7.93
2019-05-17T22:50:59.723Z,7.90
2019-05-17T22:53:28.408Z,7.80
2019-05-17T22:55:56.992Z,8.00
2019-05-17T22:58:25.729Z,8.07
2019-05-17T23:00:54.171Z,8.33
2019-05-17T23:03:22.810Z,7.73
2019-05-17T23:05:51.439Z,8.53
2019-05-17T23:08:19.901Z,7.67
2019-05-17T23:10:48.380Z,8.30
2019-05-17T23:13:16.762Z,8.53
2019-05-17T23:16:01.160Z,8.10
2019-05-17T23:18:31.034Z,8.33
2019-05-17T23:20:59.998Z,8.10
2019-05-17T23:23:28.598Z,7.53
2019-05-17T23:25:57.432Z,8.70
2019-05-17T23:28:25.834Z,8.00
2019-05-17T23:30:54.419Z,8.37
2019-05-17T23:33:22.986Z,8.83
2019-05-17T23:35:51.363Z,8.40
2019-05-17T23:38:19.923Z,8.63
2019-05-17T23:40:48.621Z,8.50
2019-05-17T23:43:17.024Z,8.83
2019-05-17T23:45:45.644Z,8.07
2019-05-17T23:48:14.080Z,8.43
2019-05-17T23:50:42.484Z,8.50
2019-05-17T23:53:10.864Z,9.37
2019-05-17T23:55:39.349Z,8.43
2019-05-17T23:58:07.731Z,8.23
